sensor_id;sensor_type;location;lat;lon;timestamp;P1;durP1;ratioP1;P2;durP2;ratioP2
13641;SDS011;6894;52.196;9.904;2024-03-06T00:01:36;15.87;;;10.47;;
13641;SDS011;6894;52.196;9.904;2024-03-06T00:04:03;12.30;;;10.10;;
13641;SDS011;6894;52.196;9.904;2024-03-06T00:06:30;12.43;;;11.07;;
13641;SDS011;6894;52.196;9.904;2024-03-06T00:08:57;14.97;;;12.47;;
13641;SDS011;6894;52.196;9.904;2024-03-06T00:11:24;13.77;;;11.20;;
13641;SDS011;6894;52.196;9.904;2024-03-06T00:13:51;16.77;;;11.47;;
13641;SDS011;6894;52.196;9.904;2024-03-06T00:16:17;12.93;;;11.07;;
13641;SDS011;6894;52.196;9.904;2024-03-06T00:18:46;15.37;;;11.00;;
13641;SDS011;6894;52.196;9.904;2024-03-06T00:21:13;16.93;;;11.80;;
13641;SDS011;6894;52.196;9.904;2024-03-06T00:23:40;14.13;;;12.13;;
13641;SDS011;6894;52.196;9.904;2024-03-06T00:26:07;14.97;;;12.50;;
13641;SDS011;6894;52.196;9.904;2024-03-06T00:28:35;14.93;;;12.77;;
13641;SDS011;6894;52.196;9.904;2024-03-06T00:31:01;14.57;;;13.07;;
13641;SDS011;6894;52.196;9.904;2024-03-06T00:33:28;13.80;;;12.20;;
13641;SDS011;6894;52.196;9.904;2024-03-06T00:35:57;15.43;;;13.73;;
13641;SDS011;6894;52.196;9.904;2024-03-06T00:38:24;17.33;;;13.50;;
13641;SDS011;6894;52.196;9.904;2024-03-06T00:40:51;17.37;;;14.27;;
13641;SDS011;6894;52.196;9.904;2024-03-06T00:43:18;15.70;;;13.87;;
13641;SDS011;6894;52.196;9.904;2024-03-06T00:45:45;15.70;;;13.57;;
13641;SDS011;6894;52.196;9.904;2024-03-06T00:48:12;16.13;;;13.93;;
13641;SDS011;6894;52.196;9.904;2024-03-06T00:50:38;17.27;;;13.90;;
13641;SDS011;6894;52.196;9.904;2024-03-06T00:53:07;18.27;;;14.73;;
13641;SDS011;6894;52.196;9.904;2024-03-06T00:55:33;20.73;;;13.93;;
13641;SDS011;6894;52.196;9.904;2024-03-06T00:58:00;18.70;;;14.67;;
13641;SDS011;6894;52.196;9.904;2024-03-06T01:00:27;16.80;;;14.10;;
13641;SDS011;6894;52.196;9.904;2024-03-06T01:02:54;17.03;;;15.23;;
13641;SDS011;6894;52.196;9.904;2024-03-06T01:05:20;18.83;;;14.97;;
13641;SDS011;6894;52.196;9.904;2024-03-06T01:07:47;16.50;;;13.40;;
13641;SDS011;6894;52.196;9.904;2024-03-06T01:10:16;17.17;;;14.03;;
13641;SDS011;6894;52.196;9.904;2024-03-06T01:12:43;15.07;;;13.57;;
13641;SDS011;6894;52.196;9.904;2024-03-06T01:15:10;20.73;;;14.27;;
13641;SDS011;6894;52.196;9.904;2024-03-06T01:17:37;21.33;;;15.03;;
13641;SDS011;6894;52.196;9.904;2024-03-06T01:20:04;19.47;;;13.93;;
13641;SDS011;6894;52.196;9.904;2024-03-06T01:22:33;18.67;;;14.03;;
13641;SDS011;6894;52.196;9.904;2024-03-06T01:24:59;16.07;;;13.83;;
13641;SDS011;6894;52.196;9.904;2024-03-06T01:27:28;19.83;;;15.00;;
13641;SDS011;6894;52.196;9.904;2024-03-06T01:29:55;17.03;;;15.03;;
13641;SDS011;6894;52.196;9.904;2024-03-06T01:32:21;15.83;;;14.07;;
13641;SDS011;6894;52.196;9.904;2024-03-06T01:34:48;16.73;;;14.13;;
13641;SDS011;6894;52.196;9.904;2024-03-06T01:37:15;20.50;;;14.77;;
13641;SDS011;6894;52.196;9.904;2024-03-06T01:39:42;18.87;;;14.40;;
13641;SDS011;6894;52.196;9.904;2024-03-06T01:42:08;18.43;;;13.87;;
13641;SDS011;6894;52.196;9.904;2024-03-06T01:44:37;19.07;;;14.43;;
13641;SDS011;6894;52.196;9.904;2024-03-06T01:47:03;16.37;;;13.40;;
13641;SDS011;6894;52.196;9.904;2024-03-06T01:49:32;19.80;;;14.87;;
13641;SDS011;6894;52.196;9.904;2024-03-06T01:51:59;16.70;;;14.83;;
13641;SDS011;6894;52.196;9.904;2024-03-06T01:54:27;16.87;;;15.07;;
13641;SDS011;6894;52.196;9.904;2024-03-06T01:56:54;18.03;;;14.27;;
13641;SDS011;6894;52.196;9.904;2024-03-06T01:59:22;18.97;;;14.67;;
13641;SDS011;6894;52.196;9.904;2024-03-06T02:01:53;17.07;;;13.87;;
13641;SDS011;6894;52.196;9.904;2024-03-06T02:04:20;16.10;;;14.03;;
13641;SDS011;6894;52.196;9.904;2024-03-06T02:06:48;18.13;;;14.00;;
13641;SDS011;6894;52.196;9.904;2024-03-06T02:09:15;17.33;;;13.80;;
13641;SDS011;6894;52.196;9.904;2024-03-06T02:11:41;18.73;;;14.07;;
13641;SDS011;6894;52.196;9.904;2024-03-06T02:14:10;15.60;;;14.00;;
13641;SDS011;6894;52.196;9.904;2024-03-06T02:16:37;15.33;;;13.73;;
13641;SDS011;6894;52.196;9.904;2024-03-06T02:19:06;19.00;;;13.60;;
13641;SDS011;6894;52.196;9.904;2024-03-06T02:21:35;19.87;;;14.40;;
13641;SDS011;6894;52.196;9.904;2024-03-06T02:24:01;17.80;;;14.03;;
13641;SDS011;6894;52.196;9.904;2024-03-06T02:26:28;17.47;;;14.13;;
13641;SDS011;6894;52.196;9.904;2024-03-06T02:28:55;15.50;;;13.53;;
13641;SDS011;6894;52.196;9.904;2024-03-06T02:31:22;17.43;;;14.70;;
13641;SDS011;6894;52.196;9.904;2024-03-06T02:33:49;19.40;;;14.37;;
13641;SDS011;6894;52.196;9.904;2024-03-06T02:36:16;16.83;;;13.83;;
13641;SDS011;6894;52.196;9.904;2024-03-06T02:38:45;17.33;;;14.17;;
13641;SDS011;6894;52.196;9.904;2024-03-06T02:41:13;17.07;;;13.93;;
13641;SDS011;6894;52.196;9.904;2024-03-06T02:43:40;16.63;;;14.03;;
13641;SDS011;6894;52.196;9.904;2024-03-06T02:46:07;18.70;;;14.63;;
13641;SDS011;6894;52.196;9.904;2024-03-06T02:48:34;19.17;;;14.83;;
13641;SDS011;6894;52.196;9.904;2024-03-06T02:51:01;17.60;;;14.83;;
13641;SDS011;6894;52.196;9.904;2024-03-06T02:53:28;16.40;;;14.67;;
13641;SDS011;6894;52.196;9.904;2024-03-06T02:55:56;18.37;;;13.43;;
13641;SDS011;6894;52.196;9.904;2024-03-06T02:58:23;18.03;;;15.17;;
13641;SDS011;6894;52.196;9.904;2024-03-06T03:00:49;18.73;;;14.10;;
13641;SDS011;6894;52.196;9.904;2024-03-06T03:03:16;14.37;;;12.83;;
13641;SDS011;6894;52.196;9.904;2024-03-06T03:05:43;14.13;;;12.63;;
13641;SDS011;6894;52.196;9.904;2024-03-06T03:08:10;19.30;;;13.70;;
13641;SDS011;6894;52.196;9.904;2024-03-06T03:10:37;17.53;;;12.90;;
13641;SDS011;6894;52.196;9.904;2024-03-06T03:13:05;22.33;;;14.60;;
13641;SDS011;6894;52.196;9.904;2024-03-06T03:15:32;16.67;;;14.23;;
13641;SDS011;6894;52.196;9.904;2024-03-06T03:17:59;18.40;;;14.13;;
13641;SDS011;6894;52.196;9.904;2024-03-06T03:20:26;15.53;;;13.83;;
13641;SDS011;6894;52.196;9.904;2024-03-06T03:22:52;14.93;;;13.40;;
13641;SDS011;6894;52.196;9.904;2024-03-06T03:25:19;19.43;;;14.53;;
13641;SDS011;6894;52.196;9.904;2024-03-06T03:27:46;17.17;;;13.60;;
13641;SDS011;6894;52.196;9.904;2024-03-06T03:30:15;19.73;;;15.67;;
13641;SDS011;6894;52.196;9.904;2024-03-06T03:32:42;16.23;;;13.73;;
13641;SDS011;6894;52.196;9.904;2024-03-06T03:35:08;18.83;;;13.83;;
13641;SDS011;6894;52.196;9.904;2024-03-06T03:37:35;15.43;;;13.10;;
13641;SDS011;6894;52.196;9.904;2024-03-06T03:40:02;21.53;;;14.33;;
13641;SDS011;6894;52.196;9.904;2024-03-06T03:42:29;16.97;;;14.23;;
13641;SDS011;6894;52.196;9.904;2024-03-06T03:44:56;17.83;;;13.57;;
13641;SDS011;6894;52.196;9.904;2024-03-06T03:47:24;17.40;;;14.73;;
13641;SDS011;6894;52.196;9.904;2024-03-06T03:49:54;19.70;;;14.57;;
13641;SDS011;6894;52.196;9.904;2024-03-06T03:52:21;16.90;;;13.77;;
13641;SDS011;6894;52.196;9.904;2024-03-06T03:54:47;17.17;;;13.73;;
13641;SDS011;6894;52.196;9.904;2024-03-06T03:57:14;19.40;;;13.83;;
13641;SDS011;6894;52.196;9.904;2024-03-06T03:59:42;15.20;;;13.40;;
13641;SDS011;6894;52.196;9.904;2024-03-06T04:02:09;19.03;;;14.23;;
13641;SDS011;6894;52.196;9.904;2024-03-06T04:04:37;18.87;;;14.80;;
13641;SDS011;6894;52.196;9.904;2024-03-06T04:07:04;22.17;;;14.57;;
13641;SDS011;6894;52.196;9.904;2024-03-06T04:09:31;13.90;;;12.37;;
13641;SDS011;6894;52.196;9.904;2024-03-06T04:12:00;19.50;;;13.73;;
13641;SDS011;6894;52.196;9.904;2024-03-06T04:14:27;20.30;;;14.47;;
13641;SDS011;6894;52.196;9.904;2024-03-06T04:16:55;19.83;;;13.63;;
13641;SDS011;6894;52.196;9.904;2024-03-06T04:19:21;15.47;;;13.33;;
13641;SDS011;6894;52.196;9.904;2024-03-06T04:21:50;16.03;;;14.23;;
13641;SDS011;6894;52.196;9.904;2024-03-06T04:24:16;17.17;;;13.03;;
13641;SDS011;6894;52.196;9.904;2024-03-06T04:26:43;18.17;;;14.30;;
13641;SDS011;6894;52.196;9.904;2024-03-06T04:29:10;15.77;;;14.17;;
13641;SDS011;6894;52.196;9.904;2024-03-06T04:31:37;15.13;;;12.93;;
13641;SDS011;6894;52.196;9.904;2024-03-06T04:34:03;15.90;;;13.37;;
13641;SDS011;6894;52.196;9.904;2024-03-06T04:36:30;16.93;;;13.70;;
13641;SDS011;6894;52.196;9.904;2024-03-06T04:38:58;16.20;;;12.50;;
13641;SDS011;6894;52.196;9.904;2024-03-06T04:41:25;15.50;;;13.43;;
13641;SDS011;6894;52.196;9.904;2024-03-06T04:43:52;16.23;;;13.33;;
13641;SDS011;6894;52.196;9.904;2024-03-06T04:46:18;15.37;;;13.20;;
13641;SDS011;6894;52.196;9.904;2024-03-06T04:48:45;18.27;;;14.97;;
13641;SDS011;6894;52.196;9.904;2024-03-06T04:51:13;14.13;;;12.37;;
13641;SDS011;6894;52.196;9.904;2024-03-06T04:53:40;14.70;;;13.10;;
13641;SDS011;6894;52.196;9.904;2024-03-06T04:56:08;18.23;;;13.53;;
13641;SDS011;6894;52.196;9.904;2024-03-06T04:58:35;20.80;;;13.53;;
13641;SDS011;6894;52.196;9.904;2024-03-06T05:01:02;17.00;;;13.80;;
13641;SDS011;6894;52.196;9.904;2024-03-06T05:03:29;15.80;;;13.70;;
13641;SDS011;6894;52.196;9.904;2024-03-06T05:05:56;16.53;;;13.83;;
13641;SDS011;6894;52.196;9.904;2024-03-06T05:08:23;17.67;;;13.63;;
13641;SDS011;6894;52.196;9.904;2024-03-06T05:10:49;15.73;;;13.47;;
13641;SDS011;6894;52.196;9.904;2024-03-06T05:13:18;17.07;;;12.50;;
13641;SDS011;6894;52.196;9.904;2024-03-06T05:15:44;16.43;;;13.63;;
13641;SDS011;6894;52.196;9.904;2024-03-06T05:18:11;16.17;;;13.60;;
13641;SDS011;6894;52.196;9.904;2024-03-06T05:20:38;15.40;;;13.47;;
13641;SDS011;6894;52.196;9.904;2024-03-06T05:23:05;14.67;;;12.90;;
13641;SDS011;6894;52.196;9.904;2024-03-06T05:25:31;14.30;;;12.77;;
13641;SDS011;6894;52.196;9.904;2024-03-06T05:27:58;18.00;;;13.63;;
13641;SDS011;6894;52.196;9.904;2024-03-06T05:30:26;17.70;;;13.70;;
13641;SDS011;6894;52.196;9.904;2024-03-06T05:32:53;20.63;;;13.53;;
13641;SDS011;6894;52.196;9.904;2024-03-06T05:35:20;15.67;;;13.30;;
13641;SDS011;6894;52.196;9.904;2024-03-06T05:37:47;18.50;;;13.20;;
13641;SDS011;6894;52.196;9.904;2024-03-06T05:40:14;15.13;;;12.77;;
13641;SDS011;6894;52.196;9.904;2024-03-06T05:42:41;10.87;;;9.73;;
13641;SDS011;6894;52.196;9.904;2024-03-06T05:45:08;18.33;;;14.93;;
13641;SDS011;6894;52.196;9.904;2024-03-06T05:47:38;15.73;;;14.07;;
13641;SDS011;6894;52.196;9.904;2024-03-06T05:50:05;15.77;;;13.53;;
13641;SDS011;6894;52.196;9.904;2024-03-06T05:52:33;16.07;;;13.33;;
13641;SDS011;6894;52.196;9.904;2024-03-06T05:55:00;16.07;;;12.93;;
13641;SDS011;6894;52.196;9.904;2024-03-06T05:57:27;18.10;;;14.13;;
13641;SDS011;6894;52.196;9.904;2024-03-06T05:59:53;16.47;;;13.50;;
13641;SDS011;6894;52.196;9.904;2024-03-06T06:02:20;17.97;;;13.53;;
13641;SDS011;6894;52.196;9.904;2024-03-06T06:04:48;19.17;;;13.97;;
13641;SDS011;6894;52.196;9.904;2024-03-06T06:07:15;16.87;;;13.63;;
13641;SDS011;6894;52.196;9.904;2024-03-06T06:09:43;18.13;;;14.00;;
13641;SDS011;6894;52.196;9.904;2024-03-06T06:12:10;18.03;;;13.17;;
13641;SDS011;6894;52.196;9.904;2024-03-06T06:14:36;15.60;;;12.93;;
13641;SDS011;6894;52.196;9.904;2024-03-06T06:17:03;21.33;;;13.90;;
13641;SDS011;6894;52.196;9.904;2024-03-06T06:19:30;15.57;;;13.67;;
13641;SDS011;6894;52.196;9.904;2024-03-06T06:21:58;19.53;;;12.93;;
13641;SDS011;6894;52.196;9.904;2024-03-06T06:24:25;17.80;;;13.17;;
13641;SDS011;6894;52.196;9.904;2024-03-06T06:26:52;18.00;;;13.47;;
13641;SDS011;6894;52.196;9.904;2024-03-06T06:29:19;17.60;;;13.83;;
13641;SDS011;6894;52.196;9.904;2024-03-06T06:31:46;16.60;;;14.07;;
13641;SDS011;6894;52.196;9.904;2024-03-06T06:34:12;16.43;;;13.87;;
13641;SDS011;6894;52.196;9.904;2024-03-06T06:36:44;18.40;;;13.77;;
13641;SDS011;6894;52.196;9.904;2024-03-06T06:39:13;17.67;;;13.70;;
13641;SDS011;6894;52.196;9.904;2024-03-06T06:41:41;17.17;;;13.93;;
13641;SDS011;6894;52.196;9.904;2024-03-06T06:44:08;18.40;;;13.83;;
13641;SDS011;6894;52.196;9.904;2024-03-06T06:46:35;16.60;;;12.77;;
13641;SDS011;6894;52.196;9.904;2024-03-06T06:49:02;20.07;;;14.03;;
13641;SDS011;6894;52.196;9.904;2024-03-06T06:51:29;16.60;;;13.70;;
13641;SDS011;6894;52.196;9.904;2024-03-06T06:53:56;17.13;;;14.47;;
13641;SDS011;6894;52.196;9.904;2024-03-06T06:56:24;14.77;;;13.27;;
13641;SDS011;6894;52.196;9.904;2024-03-06T06:58:51;17.30;;;12.97;;
13641;SDS011;6894;52.196;9.904;2024-03-06T07:01:17;18.73;;;14.40;;
13641;SDS011;6894;52.196;9.904;2024-03-06T07:03:45;16.87;;;12.97;;
13641;SDS011;6894;52.196;9.904;2024-03-06T07:06:12;18.27;;;16.40;;
13641;SDS011;6894;52.196;9.904;2024-03-06T07:08:38;17.20;;;13.63;;
13641;SDS011;6894;52.196;9.904;2024-03-06T07:11:05;17.97;;;13.87;;
13641;SDS011;6894;52.196;9.904;2024-03-06T07:13:33;15.17;;;13.10;;
13641;SDS011;6894;52.196;9.904;2024-03-06T07:16:02;20.93;;;14.10;;
13641;SDS011;6894;52.196;9.904;2024-03-06T07:18:29;19.60;;;14.07;;
13641;SDS011;6894;52.196;9.904;2024-03-06T07:20:56;15.20;;;12.57;;
13641;SDS011;6894;52.196;9.904;2024-03-06T07:23:22;17.73;;;14.67;;
13641;SDS011;6894;52.196;9.904;2024-03-06T07:25:49;16.37;;;13.43;;
13641;SDS011;6894;52.196;9.904;2024-03-06T07:28:16;18.10;;;14.13;;
13641;SDS011;6894;52.196;9.904;2024-03-06T07:30:44;15.40;;;13.10;;
13641;SDS011;6894;52.196;9.904;2024-03-06T07:33:11;18.80;;;13.37;;
13641;SDS011;6894;52.196;9.904;2024-03-06T07:35:39;18.20;;;14.30;;
13641;SDS011;6894;52.196;9.904;2024-03-06T07:38:06;17.37;;;14.33;;
13641;SDS011;6894;52.196;9.904;2024-03-06T07:40:32;17.60;;;14.20;;
13641;SDS011;6894;52.196;9.904;2024-03-06T07:42:59;28.47;;;14.23;;
13641;SDS011;6894;52.196;9.904;2024-03-06T07:45:26;14.67;;;13.07;;
13641;SDS011;6894;52.196;9.904;2024-03-06T07:47:54;19.77;;;14.40;;
13641;SDS011;6894;52.196;9.904;2024-03-06T07:50:21;20.83;;;14.93;;
13641;SDS011;6894;52.196;9.904;2024-03-06T07:52:48;17.17;;;14.27;;
13641;SDS011;6894;52.196;9.904;2024-03-06T07:55:14;15.10;;;12.63;;
13641;SDS011;6894;52.196;9.904;2024-03-06T07:57:43;16.30;;;13.60;;
13641;SDS011;6894;52.196;9.904;2024-03-06T08:00:10;16.80;;;14.23;;
13641;SDS011;6894;52.196;9.904;2024-03-06T08:02:40;16.93;;;14.13;;
13641;SDS011;6894;52.196;9.904;2024-03-06T08:05:10;19.90;;;15.13;;
13641;SDS011;6894;52.196;9.904;2024-03-06T08:07:38;18.57;;;14.80;;
13641;SDS011;6894;52.196;9.904;2024-03-06T08:10:07;16.37;;;13.87;;
13641;SDS011;6894;52.196;9.904;2024-03-06T08:12:38;16.30;;;14.27;;
13641;SDS011;6894;52.196;9.904;2024-03-06T08:15:05;17.77;;;14.23;;
13641;SDS011;6894;52.196;9.904;2024-03-06T08:17:34;17.93;;;13.87;;
13641;SDS011;6894;52.196;9.904;2024-03-06T08:20:01;19.87;;;14.33;;
13641;SDS011;6894;52.196;9.904;2024-03-06T08:22:29;18.03;;;14.50;;
13641;SDS011;6894;52.196;9.904;2024-03-06T08:24:56;17.33;;;13.53;;
13641;SDS011;6894;52.196;9.904;2024-03-06T08:27:23;19.23;;;14.50;;
13641;SDS011;6894;52.196;9.904;2024-03-06T08:29:49;18.70;;;14.43;;
13641;SDS011;6894;52.196;9.904;2024-03-06T08:32:16;17.53;;;14.67;;
13641;SDS011;6894;52.196;9.904;2024-03-06T08:34:43;19.90;;;14.57;;
13641;SDS011;6894;52.196;9.904;2024-03-06T08:37:10;16.17;;;14.23;;
13641;SDS011;6894;52.196;9.904;2024-03-06T08:39:39;18.63;;;14.73;;
13641;SDS011;6894;52.196;9.904;2024-03-06T08:42:06;17.50;;;14.13;;
13641;SDS011;6894;52.196;9.904;2024-03-06T08:44:33;16.47;;;13.90;;
13641;SDS011;6894;52.196;9.904;2024-03-06T08:47:00;22.53;;;15.80;;
13641;SDS011;6894;52.196;9.904;2024-03-06T08:49:27;16.50;;;14.40;;
13641;SDS011;6894;52.196;9.904;2024-03-06T08:51:53;20.37;;;14.77;;
13641;SDS011;6894;52.196;9.904;2024-03-06T08:54:22;18.63;;;14.67;;
13641;SDS011;6894;52.196;9.904;2024-03-06T08:56:50;20.20;;;15.47;;
13641;SDS011;6894;52.196;9.904;2024-03-06T08:59:23;17.57;;;14.97;;
13641;SDS011;6894;52.196;9.904;2024-03-06T09:01:51;22.27;;;15.47;;
13641;SDS011;6894;52.196;9.904;2024-03-06T09:04:20;19.83;;;14.70;;
13641;SDS011;6894;52.196;9.904;2024-03-06T09:06:47;20.47;;;15.63;;
13641;SDS011;6894;52.196;9.904;2024-03-06T09:09:14;20.30;;;14.83;;
13641;SDS011;6894;52.196;9.904;2024-03-06T09:11:41;19.03;;;15.90;;
13641;SDS011;6894;52.196;9.904;2024-03-06T09:14:10;24.67;;;16.80;;
13641;SDS011;6894;52.196;9.904;2024-03-06T09:16:37;25.17;;;15.33;;
13641;SDS011;6894;52.196;9.904;2024-03-06T09:19:03;21.17;;;15.67;;
13641;SDS011;6894;52.196;9.904;2024-03-06T09:21:30;20.70;;;15.37;;
13641;SDS011;6894;52.196;9.904;2024-03-06T09:23:57;21.17;;;15.67;;
13641;SDS011;6894;52.196;9.904;2024-03-06T09:26:24;24.87;;;16.37;;
13641;SDS011;6894;52.196;9.904;2024-03-06T09:28:50;19.47;;;16.07;;
13641;SDS011;6894;52.196;9.904;2024-03-06T09:31:18;20.63;;;15.17;;
13641;SDS011;6894;52.196;9.904;2024-03-06T09:33:45;19.37;;;16.87;;
13641;SDS011;6894;52.196;9.904;2024-03-06T09:36:12;20.87;;;15.53;;
13641;SDS011;6894;52.196;9.904;2024-03-06T09:38:39;21.33;;;15.23;;
13641;SDS011;6894;52.196;9.904;2024-03-06T09:41:06;26.07;;;16.33;;
13641;SDS011;6894;52.196;9.904;2024-03-06T09:43:34;23.07;;;16.37;;
13641;SDS011;6894;52.196;9.904;2024-03-06T09:46:01;20.93;;;16.73;;
13641;SDS011;6894;52.196;9.904;2024-03-06T09:48:30;24.13;;;16.90;;
13641;SDS011;6894;52.196;9.904;2024-03-06T09:51:00;21.13;;;15.10;;
13641;SDS011;6894;52.196;9.904;2024-03-06T09:53:28;20.53;;;17.43;;
13641;SDS011;6894;52.196;9.904;2024-03-06T09:55:55;20.43;;;16.50;;
13641;SDS011;6894;52.196;9.904;2024-03-06T09:58:24;22.07;;;16.17;;
13641;SDS011;6894;52.196;9.904;2024-03-06T10:00:51;21.67;;;16.93;;
13641;SDS011;6894;52.196;9.904;2024-03-06T10:03:19;23.37;;;16.70;;
13641;SDS011;6894;52.196;9.904;2024-03-06T10:05:47;21.40;;;17.27;;
13641;SDS011;6894;52.196;9.904;2024-03-06T10:08:14;18.00;;;14.83;;
13641;SDS011;6894;52.196;9.904;2024-03-06T10:10:41;22.57;;;16.23;;
13641;SDS011;6894;52.196;9.904;2024-03-06T10:13:08;22.00;;;17.10;;
13641;SDS011;6894;52.196;9.904;2024-03-06T10:15:35;19.77;;;17.07;;
13641;SDS011;6894;52.196;9.904;2024-03-06T10:18:12;26.60;;;18.13;;
13641;SDS011;6894;52.196;9.904;2024-03-06T10:20:40;18.93;;;15.17;;
13641;SDS011;6894;52.196;9.904;2024-03-06T10:23:10;18.60;;;16.53;;
13641;SDS011;6894;52.196;9.904;2024-03-06T10:25:37;22.07;;;16.80;;
13641;SDS011;6894;52.196;9.904;2024-03-06T10:28:05;22.47;;;15.70;;
13641;SDS011;6894;52.196;9.904;2024-03-06T10:30:33;18.10;;;16.03;;
13641;SDS011;6894;52.196;9.904;2024-03-06T10:33:01;22.77;;;17.23;;
13641;SDS011;6894;52.196;9.904;2024-03-06T10:35:28;21.00;;;16.70;;
13641;SDS011;6894;52.196;9.904;2024-03-06T10:37:55;24.03;;;17.43;;
13641;SDS011;6894;52.196;9.904;2024-03-06T10:40:24;23.60;;;17.07;;
13641;SDS011;6894;52.196;9.904;2024-03-06T10:42:54;19.50;;;16.10;;
13641;SDS011;6894;52.196;9.904;2024-03-06T10:45:21;18.23;;;15.20;;
13641;SDS011;6894;52.196;9.904;2024-03-06T10:47:52;23.93;;;16.83;;
13641;SDS011;6894;52.196;9.904;2024-03-06T10:50:20;21.30;;;15.00;;
13641;SDS011;6894;52.196;9.904;2024-03-06T10:52:47;23.03;;;16.37;;
13641;SDS011;6894;52.196;9.904;2024-03-06T10:55:20;17.70;;;15.20;;
13641;SDS011;6894;52.196;9.904;2024-03-06T10:57:48;21.30;;;16.73;;
13641;SDS011;6894;52.196;9.904;2024-03-06T11:00:18;20.13;;;16.43;;
13641;SDS011;6894;52.196;9.904;2024-03-06T11:02:45;20.00;;;15.70;;
13641;SDS011;6894;52.196;9.904;2024-03-06T11:05:14;20.20;;;15.33;;
13641;SDS011;6894;52.196;9.904;2024-03-06T11:07:41;20.80;;;14.40;;
13641;SDS011;6894;52.196;9.904;2024-03-06T11:10:09;19.70;;;14.77;;
13641;SDS011;6894;52.196;9.904;2024-03-06T11:12:41;17.83;;;14.13;;
13641;SDS011;6894;52.196;9.904;2024-03-06T11:15:12;16.97;;;15.13;;
13641;SDS011;6894;52.196;9.904;2024-03-06T11:17:40;23.87;;;14.93;;
13641;SDS011;6894;52.196;9.904;2024-03-06T11:20:08;20.13;;;14.87;;
13641;SDS011;6894;52.196;9.904;2024-03-06T11:28:24;18.33;;;14.77;;
13641;SDS011;6894;52.196;9.904;2024-03-06T11:30:56;16.30;;;14.50;;
13641;SDS011;6894;52.196;9.904;2024-03-06T11:33:27;18.27;;;14.60;;
13641;SDS011;6894;52.196;9.904;2024-03-06T11:36:14;16.93;;;15.20;;
13641;SDS011;6894;52.196;9.904;2024-03-06T11:38:46;20.20;;;14.63;;
13641;SDS011;6894;52.196;9.904;2024-03-06T11:41:13;16.13;;;14.47;;
13641;SDS011;6894;52.196;9.904;2024-03-06T11:43:43;18.73;;;14.17;;
13641;SDS011;6894;52.196;9.904;2024-03-06T11:46:12;20.57;;;14.77;;
13641;SDS011;6894;52.196;9.904;2024-03-06T11:48:40;18.33;;;15.17;;
13641;SDS011;6894;52.196;9.904;2024-03-06T11:51:07;16.63;;;14.83;;
13641;SDS011;6894;52.196;9.904;2024-03-06T11:53:35;20.03;;;15.27;;
13641;SDS011;6894;52.196;9.904;2024-03-06T11:56:05;21.27;;;15.57;;
13641;SDS011;6894;52.196;9.904;2024-03-06T11:58:33;18.97;;;14.73;;
13641;SDS011;6894;52.196;9.904;2024-03-06T12:01:00;17.17;;;14.07;;
13641;SDS011;6894;52.196;9.904;2024-03-06T12:03:28;17.13;;;14.03;;
13641;SDS011;6894;52.196;9.904;2024-03-06T12:05:55;18.13;;;13.50;;
13641;SDS011;6894;52.196;9.904;2024-03-06T12:08:22;19.77;;;14.43;;
13641;SDS011;6894;52.196;9.904;2024-03-06T12:10:49;18.17;;;14.57;;
13641;SDS011;6894;52.196;9.904;2024-03-06T12:13:17;18.70;;;13.97;;
13641;SDS011;6894;52.196;9.904;2024-03-06T12:15:46;22.57;;;15.17;;
13641;SDS011;6894;52.196;9.904;2024-03-06T12:18:16;15.27;;;13.63;;
13641;SDS011;6894;52.196;9.904;2024-03-06T12:20:45;18.23;;;14.70;;
13641;SDS011;6894;52.196;9.904;2024-03-06T12:23:19;25.57;;;15.80;;
13641;SDS011;6894;52.196;9.904;2024-03-06T12:25:48;16.73;;;14.70;;
13641;SDS011;6894;52.196;9.904;2024-03-06T12:28:15;20.90;;;14.77;;
13641;SDS011;6894;52.196;9.904;2024-03-06T12:30:43;15.97;;;14.20;;
13641;SDS011;6894;52.196;9.904;2024-03-06T12:33:10;18.03;;;14.23;;
13641;SDS011;6894;52.196;9.904;2024-03-06T12:35:42;15.50;;;13.53;;
13641;SDS011;6894;52.196;9.904;2024-03-06T12:38:13;16.10;;;14.03;;
13641;SDS011;6894;52.196;9.904;2024-03-06T12:40:41;17.93;;;15.27;;
13641;SDS011;6894;52.196;9.904;2024-03-06T12:43:07;16.77;;;15.00;;
13641;SDS011;6894;52.196;9.904;2024-03-06T12:45:35;17.40;;;14.37;;
13641;SDS011;6894;52.196;9.904;2024-03-06T12:48:02;19.67;;;15.13;;
13641;SDS011;6894;52.196;9.904;2024-03-06T12:50:31;16.90;;;15.07;;
13641;SDS011;6894;52.196;9.904;2024-03-06T12:52:58;16.43;;;13.93;;
13641;SDS011;6894;52.196;9.904;2024-03-06T12:55:26;19.20;;;14.17;;
13641;SDS011;6894;52.196;9.904;2024-03-06T12:57:52;19.70;;;13.90;;
13641;SDS011;6894;52.196;9.904;2024-03-06T13:00:19;18.37;;;14.83;;
13641;SDS011;6894;52.196;9.904;2024-03-06T13:02:46;17.63;;;14.20;;
13641;SDS011;6894;52.196;9.904;2024-03-06T13:05:13;19.50;;;14.97;;
13641;SDS011;6894;52.196;9.904;2024-03-06T13:07:40;21.13;;;15.20;;
13641;SDS011;6894;52.196;9.904;2024-03-06T13:10:09;21.57;;;15.13;;
13641;SDS011;6894;52.196;9.904;2024-03-06T13:12:37;17.10;;;15.10;;
13641;SDS011;6894;52.196;9.904;2024-03-06T13:15:04;17.83;;;14.17;;
13641;SDS011;6894;52.196;9.904;2024-03-06T13:17:33;17.30;;;15.03;;
13641;SDS011;6894;52.196;9.904;2024-03-06T13:20:00;18.80;;;14.40;;
13641;SDS011;6894;52.196;9.904;2024-03-06T13:22:27;16.63;;;14.83;;
13641;SDS011;6894;52.196;9.904;2024-03-06T13:24:53;24.57;;;14.83;;
13641;SDS011;6894;52.196;9.904;2024-03-06T13:27:22;19.67;;;14.40;;
13641;SDS011;6894;52.196;9.904;2024-03-06T13:29:50;23.43;;;14.90;;
13641;SDS011;6894;52.196;9.904;2024-03-06T13:32:17;17.33;;;15.43;;
13641;SDS011;6894;52.196;9.904;2024-03-06T13:34:43;20.23;;;14.37;;
13641;SDS011;6894;52.196;9.904;2024-03-06T13:37:10;17.97;;;14.73;;
13641;SDS011;6894;52.196;9.904;2024-03-06T13:39:37;19.27;;;14.93;;
13641;SDS011;6894;52.196;9.904;2024-03-06T13:42:05;20.17;;;15.07;;
13641;SDS011;6894;52.196;9.904;2024-03-06T13:44:33;19.80;;;16.03;;
13641;SDS011;6894;52.196;9.904;2024-03-06T13:47:01;21.23;;;16.50;;
13641;SDS011;6894;52.196;9.904;2024-03-06T13:49:35;19.67;;;15.90;;
13641;SDS011;6894;52.196;9.904;2024-03-06T13:52:04;20.13;;;16.10;;
13641;SDS011;6894;52.196;9.904;2024-03-06T13:54:34;18.43;;;16.43;;
13641;SDS011;6894;52.196;9.904;2024-03-06T13:57:01;21.00;;;15.80;;
13641;SDS011;6894;52.196;9.904;2024-03-06T13:59:28;22.57;;;16.80;;
13641;SDS011;6894;52.196;9.904;2024-03-06T14:01:55;20.43;;;17.77;;
13641;SDS011;6894;52.196;9.904;2024-03-06T14:04:23;25.57;;;16.57;;
13641;SDS011;6894;52.196;9.904;2024-03-06T14:06:50;21.93;;;17.10;;
13641;SDS011;6894;52.196;9.904;2024-03-06T14:09:18;20.37;;;16.03;;
13641;SDS011;6894;52.196;9.904;2024-03-06T14:11:44;22.23;;;16.97;;
13641;SDS011;6894;52.196;9.904;2024-03-06T14:14:11;19.37;;;17.13;;
13641;SDS011;6894;52.196;9.904;2024-03-06T14:16:39;26.67;;;17.90;;
13641;SDS011;6894;52.196;9.904;2024-03-06T14:19:06;20.10;;;17.63;;
13641;SDS011;6894;52.196;9.904;2024-03-06T14:21:34;23.43;;;18.07;;
13641;SDS011;6894;52.196;9.904;2024-03-06T14:24:01;19.33;;;17.00;;
13641;SDS011;6894;52.196;9.904;2024-03-06T14:26:29;24.13;;;16.87;;
13641;SDS011;6894;52.196;9.904;2024-03-06T14:28:56;24.80;;;17.27;;
13641;SDS011;6894;52.196;9.904;2024-03-06T14:31:23;23.90;;;17.63;;
13641;SDS011;6894;52.196;9.904;2024-03-06T14:33:50;16.83;;;14.73;;
13641;SDS011;6894;52.196;9.904;2024-03-06T14:36:17;20.47;;;16.43;;
13641;SDS011;6894;52.196;9.904;2024-03-06T14:38:45;22.20;;;18.53;;
13641;SDS011;6894;52.196;9.904;2024-03-06T14:41:12;27.77;;;20.90;;